Time;durP1;ratioP1;P1;durP2;ratioP2;P2;SDS_P1;SDS_P2;PMS_P1;PMS_P2;Temp;Humidity;BMP_temperature;BMP_pressure;BME280_temperature;BME280_humidity;BME280_pressure;Samples;Min_cycle;Max_cycle;Signal;HPM_P1;HPM_P2
2023/04/21 00:03:00;;;;;;;27.95;4.40;;;;;;;;;;6362344;28;20430;-72
2023/04/21 00:06:06;;;;;;;14.43;4.10;;;;;;;;;;6362870;28;20289;-73
2023/04/21 00:09:14;;;;;;;27.08;5.28;;;;;;;;;;6361009;27;20300;-74
2023/04/21 00:12:19;;;;;;;21.77;4.30;;;;;;;;;;6348572;28;20286;-74
2023/04/21 00:15:24;;;;;;;15.65;3.88;;;;;;;;;;6361696;27;20292;-74
2023/04/21 00:18:29;;;;;;;9.57;4.32;;;;;;;;;;6361861;28;20466;-72
2023/04/21 00:21:35;;;;;;;10.45;4.40;;;;;;;;;;6344232;27;20326;-73
2023/04/21 00:24:41;;;;;;;15.60;4.60;;;;;;;;;;6361421;28;20309;-74
2023/04/21 00:27:46;;;;;;;19.00;4.47;;;;;;;;;;6361200;28;20437;-73
2023/04/21 00:30:53;;;;;;;22.20;4.20;;;;;;;;;;6362057;28;20576;-73
2023/04/21 00:33:58;;;;;;;12.40;4.20;;;;;;;;;;6362073;27;20288;-72
2023/04/21 00:37:03;;;;;;;14.73;4.30;;;;;;;;;;6344096;28;20288;-72
2023/04/21 00:40:13;;;;;;;18.20;4.10;;;;;;;;;;6343790;28;20281;-73
2023/04/21 00:43:18;;;;;;;27.08;4.88;;;;;;;;;;6342949;28;20453;-73
2023/04/21 00:46:24;;;;;;;8.63;4.10;;;;;;;;;;6343640;28;20285;-73
2023/04/21 00:49:30;;;;;;;27.77;4.68;;;;;;;;;;6342869;28;20288;-73
2023/04/21 00:52:36;;;;;;;34.27;4.90;;;;;;;;;;6360940;28;20289;-73
2023/04/21 00:55:43;;;;;;;21.93;5.40;;;;;;;;;;6361448;28;20297;-73
2023/04/21 00:58:49;;;;;;;19.88;4.13;;;;;;;;;;6342402;28;20320;-72
2023/04/21 01:01:54;;;;;;;16.83;4.22;;;;;;;;;;6361258;28;20296;-72
2023/04/21 01:04:59;;;;;;;18.70;4.80;;;;;;;;;;6360081;28;20480;-73
2023/04/21 01:08:06;;;;;;;13.50;3.92;;;;;;;;;;6342605;28;20285;-73
2023/04/21 01:11:13;;;;;;;14.75;4.70;;;;;;;;;;6342587;28;20293;-73
2023/04/21 01:14:18;;;;;;;12.47;3.80;;;;;;;;;;6360452;28;20305;-72
2023/04/21 01:17:24;;;;;;;17.73;3.57;;;;;;;;;;6361053;28;20302;-73
2023/04/21 01:20:29;;;;;;;17.10;4.35;;;;;;;;;;6360060;28;20293;-72
2023/04/21 01:23:36;;;;;;;10.82;3.60;;;;;;;;;;6360325;28;20341;-73
2023/04/21 01:26:43;;;;;;;19.57;3.60;;;;;;;;;;6342378;28;20473;-74
2023/04/21 01:29:50;;;;;;;11.80;4.40;;;;;;;;;;6360097;28;20297;-74
2023/04/21 01:32:57;;;;;;;14.38;4.13;;;;;;;;;;6342065;28;20289;-72
2023/04/21 01:36:03;;;;;;;13.15;3.88;;;;;;;;;;6342605;28;20289;-73
2023/04/21 01:39:09;;;;;;;11.18;3.60;;;;;;;;;;6359088;28;20297;-72
2023/04/21 01:42:15;;;;;;;13.37;3.77;;;;;;;;;;6360287;27;20270;-72
2023/04/21 01:45:20;;;;;;;13.40;4.28;;;;;;;;;;6341555;28;20296;-72
2023/04/21 01:48:25;;;;;;;17.00;4.00;;;;;;;;;;6341737;27;20308;-73
2023/04/21 01:51:31;;;;;;;19.23;4.50;;;;;;;;;;6341439;28;20293;-73
2023/04/21 01:54:37;;;;;;;10.47;4.50;;;;;;;;;;6341457;27;20293;-73
2023/04/21 01:57:44;;;;;;;18.47;3.87;;;;;;;;;;6341141;27;20290;-73
2023/04/21 02:00:49;;;;;;;12.27;4.03;;;;;;;;;;6341915;27;20466;-72
2023/04/21 02:03:54;;;;;;;15.43;4.00;;;;;;;;;;6358508;28;20465;-73
2023/04/21 02:06:59;;;;;;;16.42;3.85;;;;;;;;;;6359514;28;20289;-72
2023/04/21 02:10:07;;;;;;;17.90;4.30;;;;;;;;;;6341059;27;20588;-73
2023/04/21 02:13:13;;;;;;;15.77;5.00;;;;;;;;;;6358207;27;20301;-73
2023/04/21 02:16:19;;;;;;;30.53;5.83;;;;;;;;;;6341150;28;20292;-73
2023/04/21 02:19:25;;;;;;;22.30;5.00;;;;;;;;;;6359011;28;20488;-73
2023/04/21 02:22:31;;;;;;;18.30;4.80;;;;;;;;;;6341105;28;20296;-74
2023/04/21 02:25:41;;;;;;;41.07;5.80;;;;;;;;;;6340285;28;20297;-73
2023/04/21 02:28:50;;;;;;;22.93;5.53;;;;;;;;;;6341077;28;20300;-73
2023/04/21 02:31:55;;;;;;;27.17;4.93;;;;;;;;;;6359120;28;20288;-73
2023/04/21 02:35:18;;;;;;;21.27;4.50;;;;;;;;;;6358542;28;20285;-73
2023/04/21 02:38:23;;;;;;;9.43;4.40;;;;;;;;;;6340431;28;20440;-72
2023/04/21 02:41:29;;;;;;;12.80;4.40;;;;;;;;;;6340827;28;20300;-73
2023/04/21 02:44:38;;;;;;;12.87;4.43;;;;;;;;;;6342258;28;20309;-72
2023/04/21 02:47:44;;;;;;;21.17;4.70;;;;;;;;;;6340080;28;20285;-73
2023/04/21 02:50:49;;;;;;;31.20;5.50;;;;;;;;;;6358438;28;20306;-72
2023/04/21 02:53:55;;;;;;;26.27;4.83;;;;;;;;;;6339968;28;20292;-73
2023/04/21 02:57:01;;;;;;;37.97;5.10;;;;;;;;;;6358487;28;20476;-73
2023/04/21 03:00:10;;;;;;;26.47;4.60;;;;;;;;;;6339178;28;20289;-74
2023/04/21 03:03:16;;;;;;;24.53;4.90;;;;;;;;;;6339328;28;20289;-73
2023/04/21 03:06:21;;;;;;;23.83;5.73;;;;;;;;;;6356558;28;20293;-73
2023/04/21 03:09:26;;;;;;;32.00;5.43;;;;;;;;;;6332784;28;20524;-73
2023/04/21 03:12:33;;;;;;;29.70;5.90;;;;;;;;;;6330504;28;20285;-72
2023/04/21 03:15:38;;;;;;;42.80;6.23;;;;;;;;;;6339626;27;20387;-73
2023/04/21 03:18:43;;;;;;;32.87;5.93;;;;;;;;;;6358290;28;20288;-73
2023/04/21 03:21:49;;;;;;;35.10;5.07;;;;;;;;;;6339840;27;20285;-73
2023/04/21 03:24:55;;;;;;;32.77;6.03;;;;;;;;;;6362577;28;20424;-73
2023/04/21 03:28:01;;;;;;;28.00;5.60;;;;;;;;;;6345692;28;20280;-72
2023/04/21 03:31:07;;;;;;;24.80;5.30;;;;;;;;;;6344968;28;20292;-72
2023/04/21 03:34:12;;;;;;;30.03;5.17;;;;;;;;;;6363186;28;20312;-72
2023/04/21 03:37:17;;;;;;;23.63;4.73;;;;;;;;;;6363390;27;20285;-72
2023/04/21 03:40:23;;;;;;;17.77;4.50;;;;;;;;;;6344661;28;20324;-73
2023/04/21 03:43:29;;;;;;;22.90;5.00;;;;;;;;;;6345451;28;20303;-72
2023/04/21 03:46:34;;;;;;;22.67;4.73;;;;;;;;;;6362786;28;20296;-73
2023/04/21 03:49:39;;;;;;;12.30;3.73;;;;;;;;;;6351674;28;20499;-72
2023/04/21 03:52:45;;;;;;;18.43;4.73;;;;;;;;;;6363183;28;20301;-73
2023/04/21 03:55:52;;;;;;;15.97;4.90;;;;;;;;;;6362428;27;20309;-72
2023/04/21 03:58:59;;;;;;;23.73;4.87;;;;;;;;;;6363419;28;20284;-73
2023/04/21 04:02:04;;;;;;;22.37;4.80;;;;;;;;;;6361922;28;20290;-72
2023/04/21 04:05:10;;;;;;;22.23;4.70;;;;;;;;;;6344401;28;20300;-73
2023/04/21 04:08:15;;;;;;;21.23;4.93;;;;;;;;;;6362908;28;20435;-73
2023/04/21 04:11:20;;;;;;;23.10;4.53;;;;;;;;;;6361890;28;20471;-72
2023/04/21 04:14:27;;;;;;;27.10;5.57;;;;;;;;;;6362359;28;20297;-72
2023/04/21 04:17:32;;;;;;;15.17;4.70;;;;;;;;;;6363080;28;20302;-73
2023/04/21 04:20:38;;;;;;;20.03;5.27;;;;;;;;;;6361970;28;20293;-72
2023/04/21 04:23:43;;;;;;;19.87;4.80;;;;;;;;;;6362535;28;20340;-73
2023/04/21 04:26:48;;;;;;;22.10;4.40;;;;;;;;;;6362035;28;20289;-73
2023/04/21 04:29:55;;;;;;;17.90;4.97;;;;;;;;;;6361534;28;20284;-73
2023/04/21 04:33:00;;;;;;;13.50;4.37;;;;;;;;;;6361981;28;20301;-73
2023/04/21 04:36:05;;;;;;;19.93;3.93;;;;;;;;;;6360912;28;20402;-73
2023/04/21 04:39:12;;;;;;;13.80;4.07;;;;;;;;;;6360805;28;20264;-73
2023/04/21 04:42:19;;;;;;;10.50;3.90;;;;;;;;;;6362127;27;20268;-73
2023/04/21 04:45:27;;;;;;;33.10;5.07;;;;;;;;;;6361870;28;20293;-72
2023/04/21 04:48:32;;;;;;;22.27;4.00;;;;;;;;;;6362036;27;20296;-73
2023/04/21 04:51:37;;;;;;;7.67;3.70;;;;;;;;;;6343705;28;20284;-72
2023/04/21 04:54:43;;;;;;;13.37;3.63;;;;;;;;;;6361353;27;20293;-72
2023/04/21 04:57:48;;;;;;;13.30;3.93;;;;;;;;;;6361951;28;20292;-73
2023/04/21 05:00:54;;;;;;;6.70;3.50;;;;;;;;;;6360829;27;20447;-73
2023/04/21 05:04:00;;;;;;;13.10;3.73;;;;;;;;;;6343339;28;20288;-72
2023/04/21 05:07:06;;;;;;;26.90;5.10;;;;;;;;;;6342795;28;20445;-73
2023/04/21 05:10:11;;;;;;;23.80;3.70;;;;;;;;;;6361318;27;20289;-73
2023/04/21 05:13:18;;;;;;;18.60;4.20;;;;;;;;;;6361721;28;20313;-73
2023/04/21 05:16:24;;;;;;;5.80;3.72;;;;;;;;;;6361303;27;20573;-73
2023/04/21 05:19:29;;;;;;;14.63;3.75;;;;;;;;;;6342132;27;20293;-73
2023/04/21 05:22:38;;;;;;;10.18;3.80;;;;;;;;;;6361296;28;20304;-73
2023/04/21 05:25:42;;;;;;;12.50;3.65;;;;;;;;;;6360602;27;20588;-73
2023/04/21 05:28:48;;;;;;;9.90;3.88;;;;;;;;;;6361292;28;20529;-73
2023/04/21 05:31:54;;;;;;;14.90;4.22;;;;;;;;;;6360336;27;20292;-73
2023/04/21 05:35:00;;;;;;;24.58;4.82;;;;;;;;;;6342137;27;20288;-72
2023/04/21 05:38:05;;;;;;;4.63;3.20;;;;;;;;;;6360559;28;20310;-72
2023/04/21 05:41:11;;;;;;;32.88;3.83;;;;;;;;;;6360306;27;20293;-73
2023/04/21 05:44:17;;;;;;;22.90;4.40;;;;;;;;;;6360435;27;20284;-74
2023/04/21 05:47:24;;;;;;;18.55;3.40;;;;;;;;;;6360899;28;20284;-74
2023/04/21 05:50:32;;;;;;;22.83;4.20;;;;;;;;;;6360265;27;20300;-74
2023/04/21 05:53:38;;;;;;;26.75;3.92;;;;;;;;;;6360323;28;20296;-75
2023/04/21 05:56:43;;;;;;;30.85;3.83;;;;;;;;;;6359715;28;20296;-73
2023/04/21 05:59:48;;;;;;;16.65;3.00;;;;;;;;;;6360507;28;20348;-73
2023/04/21 06:02:54;;;;;;;13.50;2.45;;;;;;;;;;6360493;28;20301;-73
2023/04/21 06:06:01;;;;;;;14.02;2.22;;;;;;;;;;6359980;28;20340;-73
2023/04/21 06:09:06;;;;;;;6.75;1.88;;;;;;;;;;6359318;27;20286;-74
2023/04/21 06:12:12;;;;;;;6.18;2.17;;;;;;;;;;6360084;28;20581;-73
2023/04/21 06:15:18;;;;;;;5.30;2.08;;;;;;;;;;6359971;27;20313;-74
2023/04/21 06:18:26;;;;;;;9.75;1.92;;;;;;;;;;6360258;28;20321;-72
2023/04/21 06:21:31;;;;;;;8.05;2.80;;;;;;;;;;6340976;27;20596;-73
2023/04/21 06:24:36;;;;;;;10.10;1.80;;;;;;;;;;6359546;28;20293;-72
2023/04/21 06:27:41;;;;;;;9.60;2.17;;;;;;;;;;6360504;28;20293;-74
2023/04/21 06:30:47;;;;;;;8.52;1.98;;;;;;;;;;6359704;28;20285;-73
2023/04/21 06:33:53;;;;;;;5.78;1.90;;;;;;;;;;6360201;27;20320;-74
2023/04/21 06:36:59;;;;;;;13.50;1.85;;;;;;;;;;6359629;28;20293;-74
2023/04/21 06:40:04;;;;;;;5.65;1.73;;;;;;;;;;6341530;27;20469;-72
2023/04/21 06:43:11;;;;;;;7.55;1.92;;;;;;;;;;6359620;28;20289;-72
2023/04/21 06:46:16;;;;;;;14.80;2.10;;;;;;;;;;6359743;28;20297;-74
2023/04/21 06:49:23;;;;;;;5.32;1.90;;;;;;;;;;6359377;27;20284;-73
2023/04/21 06:52:28;;;;;;;5.90;2.08;;;;;;;;;;6359550;28;20293;-73
2023/04/21 06:55:34;;;;;;;10.93;2.05;;;;;;;;;;6358959;27;20301;-73
2023/04/21 06:58:39;;;;;;;10.32;1.90;;;;;;;;;;6359480;28;20293;-74
2023/04/21 07:01:44;;;;;;;7.57;2.08;;;;;;;;;;6359047;28;20289;-72
2023/04/21 07:04:50;;;;;;;8.07;2.20;;;;;;;;;;6358716;28;20300;-73
2023/04/21 07:07:58;;;;;;;7.95;1.90;;;;;;;;;;6359630;28;20306;-73
2023/04/21 07:11:06;;;;;;;6.05;2.08;;;;;;;;;;6358829;28;20597;-73
2023/04/21 07:14:12;;;;;;;5.63;1.80;;;;;;;;;;6358842;27;20469;-73
2023/04/21 07:17:17;;;;;;;2.75;2.10;;;;;;;;;;6341568;28;20474;-73
2023/04/21 07:20:23;;;;;;;4.55;1.90;;;;;;;;;;6358584;27;20592;-73
2023/04/21 07:23:29;;;;;;;7.55;1.70;;;;;;;;;;6358710;28;20293;-72
2023/04/21 07:26:34;;;;;;;11.75;2.05;;;;;;;;;;6344711;27;20293;-73
2023/04/21 07:29:40;;;;;;;13.05;1.65;;;;;;;;;;6333731;28;20294;-73
2023/04/21 07:32:46;;;;;;;3.75;1.67;;;;;;;;;;6333877;28;20285;-73
2023/04/21 07:35:53;;;;;;;8.52;1.63;;;;;;;;;;6315568;28;20471;-73
2023/04/21 07:38:59;;;;;;;11.07;1.77;;;;;;;;;;6333864;28;20475;-72
2023/04/21 07:42:07;;;;;;;2.53;1.60;;;;;;;;;;6333116;28;20290;-73
2023/04/21 07:45:12;;;;;;;6.68;1.42;;;;;;;;;;6332267;28;20289;-73
2023/04/21 07:48:17;;;;;;;6.55;1.77;;;;;;;;;;6333782;28;20271;-73
2023/04/21 07:51:24;;;;;;;1.95;1.60;;;;;;;;;;6333006;28;20601;-74
2023/04/21 07:54:30;;;;;;;6.07;1.92;;;;;;;;;;6333249;28;20281;-73
2023/04/21 07:57:37;;;;;;;2.17;1.92;;;;;;;;;;6333448;28;20554;-73
2023/04/21 08:00:42;;;;;;;3.33;1.65;;;;;;;;;;6333415;28;20290;-73
2023/04/21 08:03:48;;;;;;;8.35;2.00;;;;;;;;;;6333175;28;20586;-73
2023/04/21 08:06:55;;;;;;;2.97;2.15;;;;;;;;;;6333595;28;20286;-73
2023/04/21 08:10:01;;;;;;;3.30;2.10;;;;;;;;;;6334807;28;20286;-73
2023/04/21 08:13:06;;;;;;;8.20;2.00;;;;;;;;;;6360291;28;20458;-73
2023/04/21 08:16:12;;;;;;;5.35;1.90;;;;;;;;;;6362797;27;20297;-73
2023/04/21 08:19:17;;;;;;;6.10;1.95;;;;;;;;;;6363227;28;20285;-73
2023/04/21 08:22:24;;;;;;;5.45;1.70;;;;;;;;;;6364105;27;20301;-72
2023/04/21 08:25:30;;;;;;;5.82;2.17;;;;;;;;;;6362150;28;20313;-73
2023/04/21 08:28:35;;;;;;;6.13;1.90;;;;;;;;;;6362941;28;20285;-73
2023/04/21 08:31:40;;;;;;;1.98;1.63;;;;;;;;;;6362644;27;20293;-73
2023/04/21 08:34:46;;;;;;;3.30;1.30;;;;;;;;;;6362880;28;20332;-73
2023/04/21 08:37:52;;;;;;;1.67;1.40;;;;;;;;;;6362858;28;20293;-73
2023/04/21 08:40:59;;;;;;;6.53;1.52;;;;;;;;;;6362394;28;20297;-73
2023/04/21 08:44:05;;;;;;;4.25;1.23;;;;;;;;;;6362499;28;20294;-74
2023/04/21 08:47:12;;;;;;;2.03;1.40;;;;;;;;;;6362502;28;20298;-72
2023/04/21 08:50:17;;;;;;;4.95;1.85;;;;;;;;;;6362008;27;20281;-73
2023/04/21 08:53:24;;;;;;;10.57;2.92;;;;;;;;;;6362314;28;20337;-74
2023/04/21 08:56:29;;;;;;;4.70;1.70;;;;;;;;;;6361846;28;20301;-74
2023/04/21 08:59:35;;;;;;;3.33;1.50;;;;;;;;;;6362009;28;20584;-72
2023/04/21 09:02:54;;;;;;;1.65;1.50;;;;;;;;;;6362714;28;20285;-73
2023/04/21 09:06:07;;;;;;;4.07;1.45;;;;;;;;;;6361830;28;20296;-72
2023/04/21 09:09:15;;;;;;;8.15;2.25;;;;;;;;;;6360720;27;20265;-74
2023/04/21 09:12:20;;;;;;;2.22;1.40;;;;;;;;;;6361874;28;20274;-74
2023/04/21 09:15:25;;;;;;;8.38;1.35;;;;;;;;;;6362005;27;20293;-73
2023/04/21 09:18:35;;;;;;;18.17;1.80;;;;;;;;;;6361385;28;20284;-73
2023/04/21 09:21:44;;;;;;;9.48;1.80;;;;;;;;;;6360110;27;20475;-73
2023/04/21 09:24:59;;;;;;;8.40;1.48;;;;;;;;;;6360728;27;20281;-73
2023/04/21 09:28:08;;;;;;;6.28;1.80;;;;;;;;;;6361505;28;20565;-73
2023/04/21 09:31:18;;;;;;;1.83;1.25;;;;;;;;;;6360509;28;20313;-72
2023/04/21 09:34:24;;;;;;;2.55;1.50;;;;;;;;;;6360352;27;20293;-73
2023/04/21 09:37:33;;;;;;;3.75;1.38;;;;;;;;;;6360797;28;20478;-72
2023/04/21 09:40:40;;;;;;;2.85;1.30;;;;;;;;;;6360822;28;20558;-72
2023/04/21 09:43:45;;;;;;;1.00;1.00;;;;;;;;;;6361031;28;20296;-73
2023/04/21 09:46:51;;;;;;;3.03;1.30;;;;;;;;;;6349462;27;20301;-74
2023/04/21 09:49:57;;;;;;;4.00;1.50;;;;;;;;;;6360639;27;20296;-73
2023/04/21 09:53:07;;;;;;;5.93;1.30;;;;;;;;;;6361111;28;20288;-73
2023/04/21 09:56:16;;;;;;;2.00;1.23;;;;;;;;;;6360269;28;20317;-72
2023/04/21 09:59:26;;;;;;;4.82;1.50;;;;;;;;;;6360929;28;20296;-73
2023/04/21 10:02:32;;;;;;;11.90;1.63;;;;;;;;;;6343621;28;20429;-73
2023/04/21 10:05:38;;;;;;;4.80;1.52;;;;;;;;;;6340123;28;20440;-73
2023/04/21 10:08:47;;;;;;;1.30;1.25;;;;;;;;;;6335944;28;20286;-73
2023/04/21 10:11:55;;;;;;;1.17;1.08;;;;;;;;;;6335089;28;20286;-72
2023/04/21 10:15:04;;;;;;;2.25;1.20;;;;;;;;;;6335299;28;20289;-73
2023/04/21 10:18:14;;;;;;;5.55;1.30;;;;;;;;;;6334353;28;20305;-73
2023/04/21 10:21:21;;;;;;;4.85;1.95;;;;;;;;;;6334205;28;20649;-73
2023/04/21 10:24:29;;;;;;;1.50;1.40;;;;;;;;;;6334411;28;20404;-72
2023/04/21 10:27:37;;;;;;;4.70;1.60;;;;;;;;;;6335464;28;20282;-73
2023/04/21 10:30:42;;;;;;;6.18;1.48;;;;;;;;;;6334559;28;20345;-72
2023/04/21 10:34:16;;;;;;;6.43;1.30;;;;;;;;;;6334710;28;20286;-73
2023/04/21 10:37:21;;;;;;;1.40;1.30;;;;;;;;;;6334082;28;20293;-73
2023/04/21 10:40:36;;;;;;;4.05;1.40;;;;;;;;;;6334271;28;20593;-73
2023/04/21 10:43:45;;;;;;;4.05;1.25;;;;;;;;;;6334768;28;20286;-72
2023/04/21 10:46:55;;;;;;;13.30;3.25;;;;;;;;;;6335108;28;20297;-73
2023/04/21 10:50:01;;;;;;;5.07;1.40;;;;;;;;;;6334140;28;20293;-73
2023/04/21 10:53:10;;;;;;;6.13;1.60;;;;;;;;;;6334826;28;20555;-72
2023/04/21 10:56:15;;;;;;;8.02;1.50;;;;;;;;;;6334286;28;20289;-74
2023/04/21 10:59:22;;;;;;;7.25;1.63;;;;;;;;;;6333938;28;20293;-73
2023/04/21 11:02:27;;;;;;;3.03;1.70;;;;;;;;;;6334645;28;20299;-71
2023/04/21 11:05:37;;;;;;;3.78;1.58;;;;;;;;;;6333715;28;20293;-73
2023/04/21 11:08:56;;;;;;;2.72;1.30;;;;;;;;;;6334387;28;20294;-73
2023/04/21 11:12:03;;;;;;;3.95;1.60;;;;;;;;;;6334628;28;20286;-72
2023/04/21 11:15:12;;;;;;;2.22;1.15;;;;;;;;;;6333142;28;20294;-73
2023/04/21 11:18:19;;;;;;;3.08;1.65;;;;;;;;;;6316908;28;20293;-73
2023/04/21 11:21:24;;;;;;;5.15;1.20;;;;;;;;;;6333764;28;20479;-73
2023/04/21 11:24:29;;;;;;;4.57;1.75;;;;;;;;;;6333582;28;20381;-72
2023/04/21 11:27:34;;;;;;;8.40;1.55;;;;;;;;;;6333991;28;20561;-73
2023/04/21 11:30:41;;;;;;;9.43;1.60;;;;;;;;;;6334154;28;20293;-73
2023/04/21 11:33:46;;;;;;;3.00;1.70;;;;;;;;;;6335125;28;20392;-72
2023/04/21 11:36:51;;;;;;;4.22;1.42;;;;;;;;;;6335459;28;20291;-72
2023/04/21 11:40:00;;;;;;;4.85;2.03;;;;;;;;;;6336006;28;20285;-73
2023/04/21 11:43:05;;;;;;;1.60;1.50;;;;;;;;;;6318195;28;20285;-73
2023/04/21 11:46:17;;;;;;;1.20;1.20;;;;;;;;;;6339371;28;20293;-73
2023/04/21 11:49:28;;;;;;;2.30;1.50;;;;;;;;;;6305083;28;20285;-73
2023/04/21 11:52:36;;;;;;;4.50;1.40;;;;;;;;;;6339789;28;20294;-73
2023/04/21 11:55:43;;;;;;;1.20;1.20;;;;;;;;;;6322426;28;20298;-73
2023/04/21 11:58:51;;;;;;;1.50;1.42;;;;;;;;;;6323861;28;20294;-73
2023/04/21 12:01:58;;;;;;;8.95;1.38;;;;;;;;;;6339723;28;20290;-74
2023/04/21 12:05:05;;;;;;;1.65;1.55;;;;;;;;;;6341176;28;20290;-73
2023/04/21 12:08:15;;;;;;;1.40;1.30;;;;;;;;;;6322875;28;20294;-72
2023/04/21 12:11:20;;;;;;;10.07;1.77;;;;;;;;;;6339713;28;20298;-72
2023/04/21 12:14:26;;;;;;;4.28;1.40;;;;;;;;;;6339867;28;20290;-73
2023/04/21 12:17:38;;;;;;;5.35;1.60;;;;;;;;;;6339670;28;20290;-73
2023/04/21 12:20:50;;;;;;;23.13;1.92;;;;;;;;;;6339527;28;20290;-73
2023/04/21 12:23:55;;;;;;;6.85;1.77;;;;;;;;;;6338586;28;20298;-73
2023/04/21 12:27:01;;;;;;;3.72;1.65;;;;;;;;;;6320800;28;20361;-73
2023/04/21 12:30:07;;;;;;;17.92;3.08;;;;;;;;;;6338349;28;20421;-73
2023/04/21 12:33:15;;;;;;;7.38;1.92;;;;;;;;;;6337229;28;20531;-73
2023/04/21 12:36:21;;;;;;;5.38;1.65;;;;;;;;;;6338030;28;20482;-74
2023/04/21 12:39:26;;;;;;;13.70;1.77;;;;;;;;;;6338085;28;20766;-73
2023/04/21 12:42:32;;;;;;;2.45;1.23;;;;;;;;;;6340824;28;20289;-73
2023/04/21 12:45:40;;;;;;;3.90;1.55;;;;;;;;;;6337838;28;20287;-73
2023/04/21 12:48:47;;;;;;;11.73;1.88;;;;;;;;;;6338512;28;20481;-74
2023/04/21 12:51:52;;;;;;;3.97;1.58;;;;;;;;;;6338572;28;20451;-74
2023/04/21 12:54:58;;;;;;;2.78;1.27;;;;;;;;;;6338796;28;20285;-75
2023/04/21 12:58:03;;;;;;;5.10;1.77;;;;;;;;;;6338535;28;20289;-72
2023/04/21 13:01:08;;;;;;;7.13;1.65;;;;;;;;;;6337085;28;20282;-73
2023/04/21 13:04:15;;;;;;;3.05;1.38;;;;;;;;;;6346614;28;20298;-73
2023/04/21 13:07:25;;;;;;;4.28;1.73;;;;;;;;;;6363095;28;20288;-73
2023/04/21 13:10:30;;;;;;;6.50;1.35;;;;;;;;;;6362655;27;20589;-74
2023/04/21 13:13:36;;;;;;;1.75;1.40;;;;;;;;;;6364069;28;20298;-73
2023/04/21 13:16:41;;;;;;;15.00;2.40;;;;;;;;;;6363139;28;20289;-73
2023/04/21 13:19:48;;;;;;;26.50;2.38;;;;;;;;;;6363086;28;20320;-73
2023/04/21 13:22:53;;;;;;;9.38;1.90;;;;;;;;;;6363886;28;20293;-72
2023/04/21 13:25:59;;;;;;;3.92;1.20;;;;;;;;;;6364017;28;20292;-73
2023/04/21 13:29:05;;;;;;;4.70;1.60;;;;;;;;;;6363510;28;20297;-74
2023/04/21 13:32:12;;;;;;;12.02;1.52;;;;;;;;;;6364376;28;20293;-73
2023/04/21 13:35:19;;;;;;;1.30;1.20;;;;;;;;;;6364701;28;20293;-73
2023/04/21 13:38:25;;;;;;;1.65;1.55;;;;;;;;;;6364941;28;20301;-73
2023/04/21 13:41:30;;;;;;;1.63;1.20;;;;;;;;;;6344345;28;20289;-73
2023/04/21 13:44:35;;;;;;;4.22;1.30;;;;;;;;;;6362467;28;20294;-74
2023/04/21 13:47:40;;;;;;;2.17;1.60;;;;;;;;;;6363617;28;20285;-74
2023/04/21 13:50:47;;;;;;;1.63;1.30;;;;;;;;;;6362976;28;20369;-73
2023/04/21 13:53:53;;;;;;;5.28;1.70;;;;;;;;;;6363219;28;20285;-74
2023/04/21 13:56:58;;;;;;;11.02;1.90;;;;;;;;;;6362674;28;20300;-74
2023/04/21 14:00:05;;;;;;;6.75;1.35;;;;;;;;;;6362963;28;20298;-72
2023/04/21 14:03:13;;;;;;;7.97;2.03;;;;;;;;;;6362091;28;20266;-73
2023/04/21 14:06:21;;;;;;;2.25;1.30;;;;;;;;;;6361531;28;20289;-72
2023/04/21 14:09:26;;;;;;;2.17;1.40;;;;;;;;;;6361254;27;20296;-77
2023/04/21 14:12:31;;;;;;;2.63;1.38;;;;;;;;;;6364095;28;20549;-75
2023/04/21 14:15:36;;;;;;;1.35;1.15;;;;;;;;;;6359480;27;20522;-77
2023/04/21 14:18:43;;;;;;;5.93;2.08;;;;;;;;;;6366348;28;20286;-73
2023/04/21 14:21:50;;;;;;;78.63;5.28;;;;;;;;;;6353817;27;20288;-72
2023/04/21 14:24:55;;;;;;;275.50;15.27;;;;;;;;;;6371675;28;20241;-72
2023/04/21 14:28:00;;;;;;;13.55;2.53;;;;;;;;;;6369925;28;20285;-73
2023/04/21 14:31:06;;;;;;;14.98;1.83;;;;;;;;;;6368944;28;20465;-72
2023/04/21 14:34:12;;;;;;;10.48;1.60;;;;;;;;;;6368721;27;20301;-76
2023/04/21 14:37:19;;;;;;;4.68;1.52;;;;;;;;;;6369292;28;20289;-74
2023/04/21 14:40:24;;;;;;;4.22;1.40;;;;;;;;;;6368741;27;20594;-73
2023/04/21 14:43:29;;;;;;;4.57;1.42;;;;;;;;;;6364762;28;20604;-73
2023/04/21 14:46:34;;;;;;;1.65;1.15;;;;;;;;;;6362559;28;20281;-73
2023/04/21 14:49:40;;;;;;;3.38;1.60;;;;;;;;;;6362906;27;20297;-73
2023/04/21 14:52:48;;;;;;;1.63;1.20;;;;;;;;;;6365001;28;20336;-74
2023/04/21 14:55:53;;;;;;;4.78;1.30;;;;;;;;;;6368394;27;20289;-74
2023/04/21 14:58:58;;;;;;;39.42;3.33;;;;;;;;;;6365413;28;20297;-74
2023/04/21 15:02:04;;;;;;;82.13;5.50;;;;;;;;;;6363967;28;20289;-74
2023/04/21 15:05:11;;;;;;;2.45;1.23;;;;;;;;;;6364805;28;20289;-75
2023/04/21 15:08:17;;;;;;;21.98;5.63;;;;;;;;;;6366066;28;20304;-73
2023/04/21 15:11:22;;;;;;;5.32;1.75;;;;;;;;;;6363559;27;20293;-74
2023/04/21 15:14:28;;;;;;;7.20;1.30;;;;;;;;;;6366218;28;20293;-75
2023/04/21 15:17:33;;;;;;;6.22;1.33;;;;;;;;;;6363830;28;20288;-76
2023/04/21 15:20:38;;;;;;;2.13;1.45;;;;;;;;;;6366809;28;20296;-73
2023/04/21 15:23:51;;;;;;;2.40;1.33;;;;;;;;;;6370476;28;20584;-76
2023/04/21 15:26:56;;;;;;;1.17;1.17;;;;;;;;;;6374156;28;20463;-75
2023/04/21 15:30:03;;;;;;;3.92;1.52;;;;;;;;;;6379560;27;20237;-76
2023/04/21 15:33:11;;;;;;;7.63;1.52;;;;;;;;;;6378695;28;20244;-75
2023/04/21 15:36:16;;;;;;;2.90;1.20;;;;;;;;;;6379573;27;20248;-75
2023/04/21 15:39:23;;;;;;;22.70;2.28;;;;;;;;;;6373637;27;20494;-73
2023/04/21 15:42:28;;;;;;;7.97;1.95;;;;;;;;;;6375054;27;20260;-74
2023/04/21 15:45:33;;;;;;;2.92;1.40;;;;;;;;;;6372994;28;20529;-75
2023/04/21 15:48:38;;;;;;;7.43;1.50;;;;;;;;;;6376075;27;20479;-74
2023/04/21 15:51:44;;;;;;;4.13;1.52;;;;;;;;;;6376182;28;20304;-75
2023/04/21 15:54:51;;;;;;;10.35;1.50;;;;;;;;;;6375889;27;20277;-74
2023/04/21 15:57:56;;;;;;;1.50;1.40;;;;;;;;;;6374829;28;20298;-74
2023/04/21 16:01:03;;;;;;;5.82;1.38;;;;;;;;;;6373245;27;20277;-76
2023/04/21 16:04:08;;;;;;;7.75;1.50;;;;;;;;;;6374728;28;20285;-77
2023/04/21 16:07:14;;;;;;;4.63;1.85;;;;;;;;;;6375079;28;20302;-74
2023/04/21 16:10:20;;;;;;;7.93;1.65;;;;;;;;;;6374219;27;20305;-72
2023/04/21 16:13:25;;;;;;;6.77;1.87;;;;;;;;;;6373220;28;20474;-73
2023/04/21 16:16:31;;;;;;;4.90;1.67;;;;;;;;;;6370977;27;20293;-73
2023/04/21 16:19:40;;;;;;;4.57;1.80;;;;;;;;;;6372864;27;20249;-72
2023/04/21 16:22:45;;;;;;;3.40;1.83;;;;;;;;;;6373706;28;20352;-73
2023/04/21 16:25:54;;;;;;;11.23;1.92;;;;;;;;;;6371462;27;20297;-74
2023/04/21 16:29:00;;;;;;;6.55;2.10;;;;;;;;;;6372866;28;20479;-76
2023/04/21 16:32:05;;;;;;;2.00;1.70;;;;;;;;;;6351671;28;20296;-74
2023/04/21 16:35:10;;;;;;;7.53;1.50;;;;;;;;;;6372445;27;20285;-74
2023/04/21 16:38:16;;;;;;;10.43;1.80;;;;;;;;;;6369477;28;20469;-72
2023/04/21 16:41:22;;;;;;;4.25;1.60;;;;;;;;;;6368425;28;20296;-72
2023/04/21 16:44:27;;;;;;;10.98;2.22;;;;;;;;;;6369771;28;21156;-73
2023/04/21 16:47:35;;;;;;;11.82;2.00;;;;;;;;;;6370439;28;20376;-71
2023/04/21 16:50:45;;;;;;;3.33;1.40;;;;;;;;;;6366781;28;20388;-72
2023/04/21 16:53:51;;;;;;;11.18;1.80;;;;;;;;;;6345333;28;20537;-73
2023/04/21 16:56:57;;;;;;;;;;;;;;;;;;6346692;28;20110;-72
2023/04/21 17:00:04;;;;;;;;;;;;;;;;;;6366044;28;19991;-72
2023/04/21 17:03:12;;;;;;;;;;;;;;;;;;6363757;28;20071;-73
2023/04/21 17:06:19;;;;;;;;;;;;;;;;;;6364861;28;19980;-72
2023/04/21 17:09:25;;;;;;;;;;;;;;;;;;6364549;27;19975;-73
2023/04/21 17:12:31;;;;;;;;;;;;;;;;;;6365581;28;19983;-73
2023/04/21 17:15:35;;;;;;;;;;;;;;;;;;6364635;27;19982;-72
2023/04/21 17:18:40;;;;;;;;;;;;;;;;;;6365911;28;19978;-71
2023/04/21 17:21:45;;;;;;;;;;;;;;;;;;6366672;27;19986;-74
2023/04/21 17:24:50;;;;;;;;;;;;;;;;;;6365538;28;20143;-72
2023/04/21 17:27:58;;;;;;;;;;;;;;;;;;6364889;28;19975;-71
2023/04/21 17:31:05;;;;;;;;;;;;;;;;;;6366527;28;19979;-73
2023/04/21 17:34:19;;;;;;;;;;;;;;;;;;6366390;27;20058;-72
2023/04/21 17:37:24;;;;;;;;;;;;;;;;;;6367796;28;19986;-73
2023/04/21 17:40:29;;;;;;;;;;;;;;;;;;6366416;27;19983;-72
2023/04/21 17:43:35;;;;;;;;;;;;;;;;;;6364989;28;19995;-72
2023/04/21 17:46:40;;;;;;;;;;;;;;;;;;6365901;28;19999;-73
2023/04/21 17:49:45;;;;;;;;;;;;;;;;;;6366956;27;20153;-74
2023/04/21 17:52:50;;;;;;;;;;;;;;;;;;6365350;28;19991;-72
2023/04/21 17:55:55;;;;;;;;;;;;;;;;;;6365275;28;19983;-72
2023/04/21 17:59:01;;;;;;;;;;;;;;;;;;6366328;28;19975;-74
2023/04/21 18:02:07;;;;;;;;;;;;;;;;;;6362892;28;19986;-72
2023/04/21 18:05:13;;;;;;;;;;;;;;;;;;6362748;28;20054;-73
2023/04/21 18:08:18;;;;;;;;;;;;;;;;;;6363198;28;20030;-72
2023/04/21 18:11:22;;;;;;;;;;;;;;;;;;6363054;28;19983;-71
2023/04/21 18:14:29;;;;;;;;;;;;;;;;;;6345359;27;19986;-71
2023/04/21 18:17:35;;;;;;;;;;;;;;;;;;6362925;28;19979;-72
2023/04/21 18:20:41;;;;;;;;;;;;;;;;;;6362031;27;19987;-71
2023/04/21 18:23:45;;;;;;;;;;;;;;;;;;6361967;28;19970;-70
2023/04/21 18:26:51;;;;;;;;;;;;;;;;;;6361522;28;20003;-71
2023/04/21 18:29:57;;;;;;;;;;;;;;;;;;6365883;28;19986;-72
2023/04/21 18:33:02;;;;;;;;;;;;;;;;;;6364129;28;20207;-70
2023/04/21 18:36:07;;;;;;;;;;;;;;;;;;6363071;27;19998;-72
2023/04/21 18:39:12;;;;;;;;;;;;;;;;;;6361568;28;20215;-72
2023/04/21 18:42:16;;;;;;;;;;;;;;;;;;6361646;27;20126;-71
2023/04/21 18:45:23;;;;;;;;;;;;;;;;;;6360588;28;19974;-76